sensor_id;sensor_type;location;lat;lon;timestamp;P1;P2;P0
50041;PMS7003;44598;51.606;5.912;2023-09-30T00:14:37;5.29;7.42;4.7
50041;PMS7003;44598;51.606;5.912;2023-09-30T00:27:57;7.81;9.17;5.79
50041;PMS7003;44598;51.606;5.912;2023-09-30T00:41:16;7.09;9.38;6.0
50041;PMS7003;44598;51.606;5.912;2023-09-30T00:54:36;8.41;9.17;5.79
50041;PMS7003;44598;51.606;5.912;2023-09-30T01:21:16;7.93;9.38;6.55
50041;PMS7003;44598;51.606;5.912;2023-09-30T01:34:36;9.49;10.69;6.44
50041;PMS7003;44598;51.606;5.912;2023-09-30T02:14:35;7.45;9.71;6.99
50041;PMS7003;44598;51.606;5.912;2023-09-30T02:41:15;10.69;12.33;8.08
50041;PMS7003;44598;51.606;5.912;2023-09-30T03:07:54;12.25;14.07;8.95
50041;PMS7003;44598;51.606;5.912;2023-09-30T03:21:14;14.29;15.38;9.93
50041;PMS7003;44598;51.606;5.912;2023-09-30T04:01:13;12.61;14.29;9.49
50041;PMS7003;44598;51.606;5.912;2023-09-30T04:14:33;11.29;13.09;9.06
50041;PMS7003;44598;51.606;5.912;2023-09-30T04:27:53;13.09;14.07;9.38
50041;PMS7003;44598;51.606;5.912;2023-09-30T04:41:13;11.89;13.96;9.49
50041;PMS7003;44598;51.606;5.912;2023-09-30T05:07:52;12.85;14.83;9.93
50041;PMS7003;44598;51.606;5.912;2023-09-30T07:21:10;21.49;19.63;12.98
50041;PMS7003;44598;51.606;5.912;2023-09-30T07:34:30;21.85;19.63;12.87
50041;PMS7003;44598;51.606;5.912;2023-09-30T08:14:30;15.13;15.71;10.36
50041;PMS7003;44598;51.606;5.912;2023-09-30T08:41:09;16.93;16.69;11.02
50041;PMS7003;44598;51.606;5.912;2023-09-30T08:54:29;12.61;14.18;9.38
50041;PMS7003;44598;51.606;5.912;2023-09-30T09:07:49;13.21;13.85;9.17
50041;PMS7003;44598;51.606;5.912;2023-09-30T09:21:09;13.57;14.83;9.27
50041;PMS7003;44598;51.606;5.912;2023-09-30T09:34:29;13.81;15.05;9.38
50041;PMS7003;44598;51.606;5.912;2023-09-30T09:47:49;13.69;13.2;8.29
50041;PMS7003;44598;51.606;5.912;2023-09-30T10:27:48;3.73;5.9;3.61
50041;PMS7003;44598;51.606;5.912;2023-09-30T11:07:47;2.4;5.02;2.95
50041;PMS7003;44598;51.606;5.912;2023-09-30T11:21:07;1.2;4.15;2.3
50041;PMS7003;44598;51.606;5.912;2023-09-30T11:34:27;1.08;3.39;2.08
50041;PMS7003;44598;51.606;5.912;2023-09-30T11:47:47;0.01;2.52;1.54
50041;PMS7003;44598;51.606;5.912;2023-09-30T12:01:07;0.6;3.39;2.19
50041;PMS7003;44598;51.606;5.912;2023-09-30T12:14:26;0.96;3.28;1.32
50041;PMS7003;44598;51.606;5.912;2023-09-30T12:27:46;0.01;2.52;1.54
50041;PMS7003;44598;51.606;5.912;2023-09-30T12:41:06;1.08;2.95;1.64
50041;PMS7003;44598;51.606;5.912;2023-09-30T12:54:26;0.24;3.17;1.75
50041;PMS7003;44598;51.606;5.912;2023-09-30T13:07:45;0.24;3.17;1.86
50041;PMS7003;44598;51.606;5.912;2023-09-30T13:21:05;0.72;3.71;1.86
50041;PMS7003;44598;51.606;5.912;2023-09-30T13:47:45;2.52;4.26;2.84
50041;PMS7003;44598;51.606;5.912;2023-09-30T14:01:05;1.32;4.15;3.06
50041;PMS7003;44598;51.606;5.912;2023-09-30T14:27:44;1.2;3.93;2.52
50041;PMS7003;44598;51.606;5.912;2023-09-30T15:07:44;5.05;6.88;4.26
50041;PMS7003;44598;51.606;5.912;2023-09-30T15:21:03;4.45;6.99;4.59
50041;PMS7003;44598;51.606;5.912;2023-09-30T15:47:43;5.29;7.75;5.24
50041;PMS7003;44598;51.606;5.912;2023-09-30T16:01:03;5.29;7.86;5.35
50041;PMS7003;44598;51.606;5.912;2023-09-30T16:27:42;5.65;8.08;5.13
50041;PMS7003;44598;51.606;5.912;2023-09-30T16:54:22;5.89;8.4;5.57
50041;PMS7003;44598;51.606;5.912;2023-09-30T17:07:42;6.13;8.51;5.57
50041;PMS7003;44598;51.606;5.912;2023-09-30T17:21:02;7.45;9.93;6.55
50041;PMS7003;44598;51.606;5.912;2023-09-30T17:34:21;8.41;9.82;6.77
50041;PMS7003;44598;51.606;5.912;2023-09-30T18:01:01;10.81;12.22;8.29
50041;PMS7003;44598;51.606;5.912;2023-09-30T18:14:21;10.45;12.65;8.62
50041;PMS7003;44598;51.606;5.912;2023-09-30T18:27:41;10.57;12.54;8.84
50041;PMS7003;44598;51.606;5.912;2023-09-30T18:41:00;11.89;13.09;8.84
50041;PMS7003;44598;51.606;5.912;2023-09-30T18:54:20;11.77;13.74;9.27
50041;PMS7003;44598;51.606;5.912;2023-09-30T19:07:40;13.57;15.27;10.15
50041;PMS7003;44598;51.606;5.912;2023-09-30T19:21:00;13.57;14.72;9.82
50041;PMS7003;44598;51.606;5.912;2023-09-30T19:47:39;14.29;16.03;10.8
50041;PMS7003;44598;51.606;5.912;2023-09-30T20:00:59;14.65;15.6;10.36
50041;PMS7003;44598;51.606;5.912;2023-09-30T20:14:19;13.93;15.6;11.13
50041;PMS7003;44598;51.606;5.912;2023-09-30T20:27:39;14.05;15.27;10.91
50041;PMS7003;44598;51.606;5.912;2023-09-30T20:40:58;17.41;17.56;11.67
50041;PMS7003;44598;51.606;5.912;2023-09-30T20:54:18;16.21;17.34;11.67
50041;PMS7003;44598;51.606;5.912;2023-09-30T21:07:38;15.97;17.45;11.67
50041;PMS7003;44598;51.606;5.912;2023-09-30T21:20:58;16.69;17.45;11.67
50041;PMS7003;44598;51.606;5.912;2023-09-30T21:34:18;17.65;17.45;11.67
50041;PMS7003;44598;51.606;5.912;2023-09-30T21:47:37;16.69;17.23;11.89
50041;PMS7003;44598;51.606;5.912;2023-09-30T22:00:57;16.45;17.56;11.78
50041;PMS7003;44598;51.606;5.912;2023-09-30T22:14:17;13.69;15.38;10.8
50041;PMS7003;44598;51.606;5.912;2023-09-30T23:20:56;15.01;16.25;10.69
50041;PMS7003;44598;51.606;5.912;2023-09-30T23:34:16;13.69;15.49;10.8
